ADDS METAR Data INFO
IDs: Format: Raw Decoded Include TAF

Data at: 1049 UTC 19 Oct 2017

METAR for:KMLB (Melbourne Intl, FL, US)
Text:KMLB 190953Z 05012KT 10SM FEW023 FEW029 26/22 A3003 RMK AO2 SLP167 T02610222
Temperature: 26.1°C ( 79°F)
Dewpoint: 22.2°C ( 72°F) [RH = 79%]
Pressure (altimeter):30.03 inches Hg (1017.0 mb) [Sea level pressure: 1016.7 mb]
Winds:from the NE (50 degrees) at 14 MPH (12 knots; 6.2 m/s)
Visibility:10 or more sm (16+ km)
Ceiling:at least 12,000 feet AGL
Clouds: few clouds at 2300 feet AGL, few clouds at 2900 feet AGL